Overview Statistics Trail Chart Weather Telemetry Raw packets
 

This is the latest recevied weather packets stored in our database for station/object W7BTL. If no packets are shown the sender has not sent any weather packets the latest 10 day(s).

<< 40 41 42 43 44 45 46 >>
Time Temp. Humidity Pressure Rain* Wind** Luminosity Snow
1788386745 29.44° C 43% 1013.9 hPa 0 mm - 751 W/m² -
1788386440 30° C 43% 1014.1 hPa 0 mm - 775 W/m² -
1788386136 30° C 43% 1014.1 hPa 0 mm - 783 W/m² -
1788385831 29.44° C 43% 1014.2 hPa 0 mm - 795 W/m² -
1788385526 28.89° C 45% 1014.4 hPa 0 mm - 814 W/m² -
1788385225 29.44° C 44% 1014.3 hPa 0 mm - 819 W/m² -
1788384921 30° C 43% 1014.4 hPa 0 mm - 840 W/m² -
1788384620 30.56° C 42% 1014.4 hPa 0 mm - 853 W/m² -
1788384316 31.67° C 37% 1014.5 hPa 0 mm - 859 W/m² -
1788384012 31.67° C 35% 1014.6 hPa 0 mm - 879 W/m² -
1788383708 31.11° C 34% 1014.5 hPa 0 mm - 885 W/m² -
1788383403 31.11° C 34% 1014.6 hPa 0 mm - 907 W/m² -
1788383102 30.56° C 36% 1014.6 hPa 0 mm - 912 W/m² -
1788382801 30° C 36% 1014.4 hPa 0 mm - 925 W/m² -
1788382495 30° C 37% 1014.8 hPa 0 mm - 941 W/m² -
1788382191 29.44° C 38% 1014.6 hPa 0 mm - 943 W/m² -
1788381891 29.44° C 35% 1014.8 hPa 0 mm - 948 W/m² -
1788381586 30° C 34% 1014.8 hPa 0 mm - 963 W/m² -
1788381282 30° C 34% 1014.8 hPa 0 mm - 915 W/m² -
1788380980 29.44° C 37% 1014.9 hPa 0 mm - 973 W/m² -
1788380677 29.44° C 34% 1015 hPa 0 mm - 974 W/m² -
1788380373 30° C 36% 1014.9 hPa 0 mm - 980 W/m² -
1788380068 30° C 36% 1015 hPa 0 mm - 990 W/m² -
1788379768 29.44° C 36% 1015 hPa 0 mm - 994 W/m² -
1788379463 29.44° C 38% 1015 hPa 0 mm - 994 W/m² -

* Rain latest hour (hover to see other rain measurements)
** Current wind speed in m/s (hover to see current wind gust speed)